Time;durP1;ratioP1;P1;durP2;ratioP2;P2;SDS_P1;SDS_P2;PMS_P1;PMS_P2;Temp;Humidity;BMP_temperature;BMP_pressure;BME280_temperature;BME280_humidity;BME280_pressure;Samples;Min_cycle;Max_cycle;Signal;HPM_P1;HPM_P2
2022/05/31 00:01:20;;;;;;;5.40;3.90;;;;;;;;;;5113743;28;20198;-79
2022/05/31 00:03:47;;;;;;;4.00;3.50;;;;;;;;;;5113085;28;20682;-79
2022/05/31 00:06:14;;;;;;;4.57;3.97;;;;;;;;;;5113267;28;20288;-79
2022/05/31 00:08:41;;;;;;;4.10;3.67;;;;;;;;;;5113012;28;20621;-80
2022/05/31 00:11:08;;;;;;;4.37;3.67;;;;;;;;;;5112906;28;20218;-80
2022/05/31 00:13:35;;;;;;;3.53;3.23;;;;;;;;;;5112939;28;20680;-79
2022/05/31 00:16:03;;;;;;;4.50;4.10;;;;;;;;;;5113143;28;20203;-79
2022/05/31 00:18:31;;;;;;;5.93;4.03;;;;;;;;;;5126557;27;20727;-79
2022/05/31 00:20:58;;;;;;;7.40;3.80;;;;;;;;;;5133310;27;20193;-79
2022/05/31 00:23:24;;;;;;;4.33;3.43;;;;;;;;;;5133543;27;20361;-79
2022/05/31 00:25:52;;;;;;;3.77;3.23;;;;;;;;;;5133531;27;20221;-79
2022/05/31 00:28:19;;;;;;;3.87;3.57;;;;;;;;;;5133204;27;20208;-80
2022/05/31 00:30:46;;;;;;;4.30;3.60;;;;;;;;;;5133859;27;20428;-79
2022/05/31 00:33:15;;;;;;;4.57;3.43;;;;;;;;;;5132885;27;20198;-79
2022/05/31 00:35:48;;;;;;;5.43;3.70;;;;;;;;;;5123267;27;20267;-80
2022/05/31 00:38:15;;;;;;;4.20;3.80;;;;;;;;;;5112491;28;20188;-79
2022/05/31 00:40:43;;;;;;;4.40;3.90;;;;;;;;;;5112697;28;20735;-79
2022/05/31 00:43:11;;;;;;;4.47;4.03;;;;;;;;;;5112542;28;20198;-79
2022/05/31 00:45:44;;;;;;;4.23;3.83;;;;;;;;;;5112453;28;20200;-79
2022/05/31 00:48:16;;;;;;;7.80;3.70;;;;;;;;;;5112683;28;20601;-80
2022/05/31 00:50:46;;;;;;;3.73;3.40;;;;;;;;;;5112448;28;20243;-80
2022/05/31 00:53:17;;;;;;;4.23;3.87;;;;;;;;;;5112073;28;20192;-79
2022/05/31 00:55:48;;;;;;;4.53;3.87;;;;;;;;;;5112058;27;20179;-80
2022/05/31 00:58:17;;;;;;;4.27;3.83;;;;;;;;;;5132714;27;20625;-80
2022/05/31 01:00:44;;;;;;;4.30;4.00;;;;;;;;;;5132705;27;20673;-80
2022/05/31 01:03:23;;;;;;;6.40;4.47;;;;;;;;;;5132120;27;20201;-80
2022/05/31 01:05:50;;;;;;;5.73;4.13;;;;;;;;;;5111996;28;20262;-79
2022/05/31 01:08:17;;;;;;;4.73;3.77;;;;;;;;;;5112114;28;20210;-80
2022/05/31 01:10:45;;;;;;;5.07;4.30;;;;;;;;;;5112358;28;20648;-80
2022/05/31 01:13:16;;;;;;;4.07;3.77;;;;;;;;;;5111835;28;20202;-80
2022/05/31 01:15:43;;;;;;;4.20;3.80;;;;;;;;;;5112391;28;20698;-80
2022/05/31 01:18:11;;;;;;;3.97;3.67;;;;;;;;;;5111964;28;20746;-80
2022/05/31 01:20:39;;;;;;;4.20;3.37;;;;;;;;;;5111766;28;20231;-80
2022/05/31 01:23:09;;;;;;;4.10;3.70;;;;;;;;;;5111903;28;20264;-80
2022/05/31 01:25:49;;;;;;;6.60;3.90;;;;;;;;;;5112252;28;20230;-80
2022/05/31 01:28:21;;;;;;;5.07;4.30;;;;;;;;;;5112277;28;20195;-80
2022/05/31 01:30:55;;;;;;;4.37;3.97;;;;;;;;;;5111949;28;20259;-80
2022/05/31 01:33:28;;;;;;;4.50;4.00;;;;;;;;;;5111915;28;20700;-80
2022/05/31 01:35:56;;;;;;;4.23;3.83;;;;;;;;;;5112243;28;20219;-80
2022/05/31 01:38:26;;;;;;;6.73;4.50;;;;;;;;;;5111832;28;20198;-79
2022/05/31 01:40:56;;;;;;;4.13;3.73;;;;;;;;;;5111756;28;20198;-79
2022/05/31 01:43:23;;;;;;;4.20;3.80;;;;;;;;;;5111790;28;20186;-80
2022/05/31 01:45:54;;;;;;;7.13;4.00;;;;;;;;;;5112098;28;20202;-80
2022/05/31 01:48:21;;;;;;;4.90;4.47;;;;;;;;;;5112555;28;20644;-79
2022/05/31 01:50:48;;;;;;;4.13;3.53;;;;;;;;;;5115644;28;20263;-79
2022/05/31 01:53:17;;;;;;;6.83;5.33;;;;;;;;;;5115978;28;20578;-80
2022/05/31 01:55:44;;;;;;;5.10;4.00;;;;;;;;;;5115907;27;20684;-80
2022/05/31 01:58:19;;;;;;;4.90;3.97;;;;;;;;;;5115547;28;20669;-80
2022/05/31 02:00:46;;;;;;;4.93;4.50;;;;;;;;;;5115528;28;20178;-79
2022/05/31 02:03:16;;;;;;;5.57;3.93;;;;;;;;;;5115682;28;20201;-80
2022/05/31 02:05:47;;;;;;;4.40;3.97;;;;;;;;;;5115488;28;20730;-78
2022/05/31 02:08:14;;;;;;;4.20;3.83;;;;;;;;;;5115594;27;20192;-78
2022/05/31 02:10:43;;;;;;;3.63;3.43;;;;;;;;;;5115786;28;20221;-79
2022/05/31 02:13:10;;;;;;;4.83;4.40;;;;;;;;;;5115325;28;20670;-80
2022/05/31 02:15:37;;;;;;;6.07;4.37;;;;;;;;;;5115391;28;20197;-79
2022/05/31 02:18:04;;;;;;;4.43;4.03;;;;;;;;;;5115295;28;20667;-80
2022/05/31 02:20:31;;;;;;;5.10;4.63;;;;;;;;;;5115728;28;20248;-79
2022/05/31 02:22:58;;;;;;;7.30;4.17;;;;;;;;;;5115128;28;20289;-79
2022/05/31 02:25:25;;;;;;;4.30;3.90;;;;;;;;;;5115273;28;20196;-80
2022/05/31 02:27:54;;;;;;;4.90;4.50;;;;;;;;;;5114840;28;20734;-79
2022/05/31 02:30:21;;;;;;;5.40;4.80;;;;;;;;;;5131691;27;20220;-79
2022/05/31 02:32:48;;;;;;;6.27;4.67;;;;;;;;;;5156360;27;20264;-81
2022/05/31 02:35:16;;;;;;;4.70;4.30;;;;;;;;;;5156180;27;20253;-80
2022/05/31 02:37:43;;;;;;;4.90;4.40;;;;;;;;;;5156336;27;20274;-80
2022/05/31 02:40:11;;;;;;;4.50;3.53;;;;;;;;;;5156228;27;20232;-80
2022/05/31 02:42:39;;;;;;;4.80;4.27;;;;;;;;;;5156110;27;20622;-80
2022/05/31 02:45:09;;;;;;;6.00;4.43;;;;;;;;;;5154779;27;20195;-80
2022/05/31 02:47:37;;;;;;;4.57;3.80;;;;;;;;;;5154397;27;20202;-80
2022/05/31 02:50:05;;;;;;;5.03;4.60;;;;;;;;;;5156346;27;20255;-80
2022/05/31 02:52:32;;;;;;;5.50;4.23;;;;;;;;;;5156090;27;20289;-80
2022/05/31 02:54:59;;;;;;;5.70;4.30;;;;;;;;;;5156281;27;20192;-81
2022/05/31 02:57:27;;;;;;;5.63;4.50;;;;;;;;;;5155922;27;20223;-80
2022/05/31 02:59:54;;;;;;;4.27;3.87;;;;;;;;;;5155456;27;20254;-80
2022/05/31 03:02:22;;;;;;;5.43;4.17;;;;;;;;;;5155815;27;20216;-80
2022/05/31 03:04:49;;;;;;;4.20;3.83;;;;;;;;;;5155773;27;20240;-80
2022/05/31 03:07:16;;;;;;;6.80;4.90;;;;;;;;;;5155629;27;20245;-80
2022/05/31 03:09:43;;;;;;;6.23;4.00;;;;;;;;;;5155602;27;20195;-81
2022/05/31 03:12:12;;;;;;;4.90;4.50;;;;;;;;;;5155569;27;20257;-80
2022/05/31 03:14:42;;;;;;;5.73;4.00;;;;;;;;;;5155855;27;20194;-80
2022/05/31 03:17:18;;;;;;;4.50;4.10;;;;;;;;;;5155713;27;20203;-80
2022/05/31 03:19:49;;;;;;;4.47;3.80;;;;;;;;;;5155657;27;20263;-80
2022/05/31 03:22:19;;;;;;;5.10;4.57;;;;;;;;;;5155751;27;20178;-80
2022/05/31 03:24:50;;;;;;;4.60;4.20;;;;;;;;;;5155729;27;20200;-80
2022/05/31 03:27:17;;;;;;;4.13;3.70;;;;;;;;;;5155352;27;20187;-80
2022/05/31 03:29:46;;;;;;;6.47;4.70;;;;;;;;;;5155380;27;20200;-80
2022/05/31 03:32:13;;;;;;;4.80;4.40;;;;;;;;;;5155414;27;20219;-79
2022/05/31 03:34:40;;;;;;;5.67;4.30;;;;;;;;;;5155410;27;20264;-80
2022/05/31 03:37:09;;;;;;;5.83;4.10;;;;;;;;;;5155161;27;20196;-80
2022/05/31 03:39:36;;;;;;;5.20;4.40;;;;;;;;;;5154758;27;20230;-80
2022/05/31 03:42:04;;;;;;;6.10;4.17;;;;;;;;;;5155404;27;20251;-80
2022/05/31 03:44:31;;;;;;;5.37;4.80;;;;;;;;;;5154781;27;20664;-80
2022/05/31 03:46:58;;;;;;;7.90;5.13;;;;;;;;;;5155365;27;20252;-80
2022/05/31 03:49:25;;;;;;;7.60;4.37;;;;;;;;;;5154518;27;20197;-79
2022/05/31 03:51:52;;;;;;;6.47;4.20;;;;;;;;;;5155163;27;20643;-80
2022/05/31 03:54:20;;;;;;;5.53;4.17;;;;;;;;;;5154661;27;20247;-79
2022/05/31 03:56:47;;;;;;;8.10;5.50;;;;;;;;;;5154743;27;20195;-80
2022/05/31 03:59:14;;;;;;;6.90;4.63;;;;;;;;;;5154684;27;20198;-80
2022/05/31 04:01:41;;;;;;;4.73;4.27;;;;;;;;;;5154999;27;20223;-80
2022/05/31 04:04:08;;;;;;;5.97;4.47;;;;;;;;;;5154445;27;20201;-80
2022/05/31 04:06:36;;;;;;;5.10;4.60;;;;;;;;;;5154393;27;20242;-82
2022/05/31 04:09:03;;;;;;;5.03;4.23;;;;;;;;;;5154368;27;20290;-80
2022/05/31 04:11:32;;;;;;;6.93;4.87;;;;;;;;;;5153633;27;20731;-79
2022/05/31 04:13:59;;;;;;;4.63;4.23;;;;;;;;;;5154590;27;20669;-80
2022/05/31 04:16:27;;;;;;;5.60;4.33;;;;;;;;;;5154660;27;20232;-80
2022/05/31 04:18:54;;;;;;;4.77;3.90;;;;;;;;;;5154198;27;20196;-80
2022/05/31 04:21:21;;;;;;;4.23;3.70;;;;;;;;;;5154087;27;20197;-80
2022/05/31 04:24:08;;;;;;;4.10;3.80;;;;;;;;;;5154398;27;20223;-80
2022/05/31 04:26:39;;;;;;;5.63;4.30;;;;;;;;;;5154560;27;20612;-80
2022/05/31 04:29:06;;;;;;;7.23;4.40;;;;;;;;;;5153922;27;20234;-80
2022/05/31 04:31:33;;;;;;;5.13;4.53;;;;;;;;;;5154075;27;20224;-79
2022/05/31 04:34:00;;;;;;;8.93;4.53;;;;;;;;;;5153925;27;20208;-80
2022/05/31 04:36:27;;;;;;;6.23;5.07;;;;;;;;;;5148246;27;20204;-79
2022/05/31 04:38:54;;;;;;;5.33;4.20;;;;;;;;;;5120876;27;20263;-80
2022/05/31 04:41:22;;;;;;;4.77;4.37;;;;;;;;;;5132178;27;20239;-80
2022/05/31 04:43:52;;;;;;;6.00;5.50;;;;;;;;;;5131691;27;20190;-79
2022/05/31 04:46:21;;;;;;;4.70;4.30;;;;;;;;;;5132105;27;20205;-80
2022/05/31 04:48:49;;;;;;;9.43;5.27;;;;;;;;;;5131518;27;20201;-80
2022/05/31 04:51:16;;;;;;;5.20;4.43;;;;;;;;;;5132146;27;20228;-80
2022/05/31 04:53:44;;;;;;;4.93;4.50;;;;;;;;;;5133056;27;20258;-80
2022/05/31 04:56:13;;;;;;;6.13;5.00;;;;;;;;;;5133385;27;20634;-79
2022/05/31 04:58:40;;;;;;;5.37;4.70;;;;;;;;;;5132722;27;20206;-80
2022/05/31 05:01:08;;;;;;;4.93;4.53;;;;;;;;;;5132707;27;20229;-80
2022/05/31 05:03:36;;;;;;;5.20;4.40;;;;;;;;;;5132799;27;20236;-80
2022/05/31 05:06:04;;;;;;;7.53;5.07;;;;;;;;;;5132872;27;20230;-80
2022/05/31 05:08:32;;;;;;;6.47;4.97;;;;;;;;;;5132726;27;20670;-79
2022/05/31 05:11:00;;;;;;;6.63;5.70;;;;;;;;;;5132864;28;20299;-80
2022/05/31 05:13:27;;;;;;;8.43;5.40;;;;;;;;;;5132744;27;20197;-80
2022/05/31 05:15:55;;;;;;;4.83;4.43;;;;;;;;;;5132866;27;20587;-79
2022/05/31 05:18:24;;;;;;;10.37;4.80;;;;;;;;;;5132905;28;20198;-80
2022/05/31 05:20:51;;;;;;;9.20;4.60;;;;;;;;;;5132690;27;20679;-79
2022/05/31 05:23:19;;;;;;;9.53;5.03;;;;;;;;;;5136746;27;20199;-80
2022/05/31 05:25:48;;;;;;;9.73;5.23;;;;;;;;;;5137400;27;20251;-80
2022/05/31 05:31:00;;;;;;;7.03;4.10;;;;;;;;;;5136851;27;20218;-80
2022/05/31 05:33:28;;;;;;;4.67;3.77;;;;;;;;;;5136720;27;20198;-80
2022/05/31 05:35:55;;;;;;;4.83;4.37;;;;;;;;;;5136919;27;20194;-80
2022/05/31 05:38:22;;;;;;;6.43;4.07;;;;;;;;;;5136609;27;20199;-80
2022/05/31 05:40:49;;;;;;;4.83;4.37;;;;;;;;;;5136817;27;20734;-80
2022/05/31 05:43:16;;;;;;;6.37;4.40;;;;;;;;;;5136723;27;20569;-80
2022/05/31 05:45:44;;;;;;;4.13;3.63;;;;;;;;;;5136963;27;20247;-80
2022/05/31 05:48:11;;;;;;;7.43;4.40;;;;;;;;;;5136715;27;20190;-80
2022/05/31 05:50:40;;;;;;;5.37;4.20;;;;;;;;;;5136702;27;20662;-79
2022/05/31 05:53:09;;;;;;;5.27;4.73;;;;;;;;;;5136557;27;20625;-80
2022/05/31 05:55:36;;;;;;;5.17;3.90;;;;;;;;;;5136482;27;20198;-80
2022/05/31 05:58:07;;;;;;;4.47;4.07;;;;;;;;;;5136250;27;20252;-80
2022/05/31 06:00:37;;;;;;;5.90;4.00;;;;;;;;;;5136120;27;20692;-80
2022/05/31 06:03:10;;;;;;;4.83;4.30;;;;;;;;;;5136140;27;20198;-80
2022/05/31 06:05:37;;;;;;;4.43;4.03;;;;;;;;;;5136295;27;20275;-80
2022/05/31 06:08:08;;;;;;;4.37;3.97;;;;;;;;;;5136062;27;20203;-80
2022/05/31 06:10:39;;;;;;;4.23;3.83;;;;;;;;;;5136497;27;20205;-81
2022/05/31 06:13:09;;;;;;;4.50;4.10;;;;;;;;;;5136077;27;20767;-81
2022/05/31 06:15:39;;;;;;;5.17;3.70;;;;;;;;;;5136094;27;20189;-80
2022/05/31 06:18:11;;;;;;;4.43;4.00;;;;;;;;;;5136176;27;20179;-81
2022/05/31 06:20:37;;;;;;;5.00;4.50;;;;;;;;;;5135731;27;20214;-81
2022/05/31 06:23:06;;;;;;;4.73;4.33;;;;;;;;;;5136107;27;20599;-81
2022/05/31 06:25:33;;;;;;;6.00;4.73;;;;;;;;;;5136126;27;20195;-81
2022/05/31 06:28:00;;;;;;;5.57;4.93;;;;;;;;;;5135614;27;20633;-81
2022/05/31 06:30:28;;;;;;;5.30;4.50;;;;;;;;;;5135780;27;20191;-81
2022/05/31 06:32:55;;;;;;;4.70;4.10;;;;;;;;;;5135339;27;20702;-81
2022/05/31 06:35:22;;;;;;;5.93;4.67;;;;;;;;;;5135530;27;20253;-81
2022/05/31 06:37:49;;;;;;;4.40;4.00;;;;;;;;;;5135237;27;20231;-81
2022/05/31 06:40:17;;;;;;;5.03;4.20;;;;;;;;;;5135608;27;20206;-81
2022/05/31 06:42:44;;;;;;;5.80;4.33;;;;;;;;;;5135704;27;20198;-81
2022/05/31 06:45:12;;;;;;;5.77;5.13;;;;;;;;;;5135296;27;20197;-81
2022/05/31 06:47:39;;;;;;;8.37;4.67;;;;;;;;;;5135249;27;20251;-81
2022/05/31 06:50:07;;;;;;;5.23;4.50;;;;;;;;;;5134438;27;20234;-80
2022/05/31 06:58:04;;;;;;;7.20;4.00;;;;;;;;;;5135190;27;20255;-81
2022/05/31 07:00:31;;;;;;;11.50;5.97;;;;;;;;;;5135515;27;20199;-81
2022/05/31 07:02:59;;;;;;;6.90;4.57;;;;;;;;;;5135036;27;20251;-81
2022/05/31 07:05:26;;;;;;;8.03;5.10;;;;;;;;;;5135157;27;20230;-81
2022/05/31 07:07:54;;;;;;;5.77;4.70;;;;;;;;;;5134724;27;20247;-80
2022/05/31 07:10:23;;;;;;;4.33;3.93;;;;;;;;;;5134988;27;20194;-81
2022/05/31 07:12:50;;;;;;;4.70;4.17;;;;;;;;;;5134716;27;20222;-81
2022/05/31 07:15:17;;;;;;;3.63;3.20;;;;;;;;;;5134722;27;20268;-81
2022/05/31 07:17:46;;;;;;;4.20;3.80;;;;;;;;;;5134748;27;20198;-81
2022/05/31 07:20:14;;;;;;;4.03;3.63;;;;;;;;;;5134833;27;20604;-81
2022/05/31 07:22:41;;;;;;;4.50;3.40;;;;;;;;;;5134397;27;20202;-81
2022/05/31 07:25:09;;;;;;;4.80;3.37;;;;;;;;;;5134769;27;20552;-81
2022/05/31 07:27:38;;;;;;;4.20;3.80;;;;;;;;;;5134808;27;20191;-81
2022/05/31 07:30:06;;;;;;;3.93;3.63;;;;;;;;;;5134690;27;20667;-81
2022/05/31 07:32:34;;;;;;;3.80;3.17;;;;;;;;;;5134117;27;20218;-81
2022/05/31 07:35:01;;;;;;;4.57;3.43;;;;;;;;;;5134861;27;20191;-82
2022/05/31 07:37:28;;;;;;;4.10;3.03;;;;;;;;;;5134580;27;20289;-81
2022/05/31 07:39:55;;;;;;;8.00;3.87;;;;;;;;;;5134419;27;20205;-81
2022/05/31 07:42:22;;;;;;;10.67;3.87;;;;;;;;;;5134337;27;20610;-81
2022/05/31 07:44:54;;;;;;;4.73;3.43;;;;;;;;;;5134114;27;20203;-81
2022/05/31 07:47:21;;;;;;;3.40;2.90;;;;;;;;;;5133791;27;20183;-81
2022/05/31 07:49:48;;;;;;;7.37;4.03;;;;;;;;;;5134377;27;20243;-82
2022/05/31 07:52:15;;;;;;;4.77;3.73;;;;;;;;;;5134133;27;20218;-81
2022/05/31 07:54:42;;;;;;;6.07;3.37;;;;;;;;;;5134331;27;20280;-81
2022/05/31 07:58:30;;;;;;;6.87;3.73;;;;;;;;;;5134421;27;20194;-81
2022/05/31 07:59:57;;;;;;;5.73;3.40;;;;;;;;;;5133867;27;20191;-81
2022/05/31 08:02:24;;;;;;;7.33;3.17;;;;;;;;;;5133815;27;20247;-81
2022/05/31 08:04:52;;;;;;;3.60;2.80;;;;;;;;;;5134026;27;20715;-82
2022/05/31 08:07:19;;;;;;;3.47;2.80;;;;;;;;;;5133709;27;20187;-81
2022/05/31 08:09:46;;;;;;;4.63;3.37;;;;;;;;;;5134170;27;20207;-81
2022/05/31 08:12:14;;;;;;;3.63;2.77;;;;;;;;;;5133960;27;20226;-81
2022/05/31 08:14:41;;;;;;;4.33;3.33;;;;;;;;;;5133865;27;20194;-81
2022/05/31 08:17:11;;;;;;;3.20;2.90;;;;;;;;;;5133710;27;20183;-81
2022/05/31 08:19:39;;;;;;;7.17;3.97;;;;;;;;;;5132993;27;20671;-82
2022/05/31 08:22:06;;;;;;;4.93;2.70;;;;;;;;;;5133723;27;20193;-81
2022/05/31 08:24:33;;;;;;;3.60;2.90;;;;;;;;;;5133256;27;20631;-81
2022/05/31 08:27:00;;;;;;;4.65;3.15;;;;;;;;;;5133525;27;20238;-82
2022/05/31 08:29:28;;;;;;;3.05;2.75;;;;;;;;;;5133359;27;20194;-82
2022/05/31 08:31:57;;;;;;;2.70;2.50;;;;;;;;;;5133087;27;20702;-82
2022/05/31 08:34:26;;;;;;;3.55;2.75;;;;;;;;;;5133593;27;20194;-82
2022/05/31 08:36:54;;;;;;;4.00;2.23;;;;;;;;;;5133599;27;20203;-81
2022/05/31 08:39:21;;;;;;;3.88;2.75;;;;;;;;;;5133761;27;20600;-81
2022/05/31 08:41:50;;;;;;;4.82;3.05;;;;;;;;;;5133335;27;20194;-82
2022/05/31 08:44:34;;;;;;;3.70;2.23;;;;;;;;;;5133221;27;20224;-81
2022/05/31 08:47:02;;;;;;;7.13;2.67;;;;;;;;;;5133553;27;20219;-82
2022/05/31 08:52:53;;;;;;;4.70;2.42;;;;;;;;;;5133290;27;20214;-81
2022/05/31 08:58:10;;;;;;;5.28;2.55;;;;;;;;;;5132804;27;20178;-82
2022/05/31 09:00:40;;;;;;;3.47;2.88;;;;;;;;;;5133378;27;20198;-81
2022/05/31 09:03:12;;;;;;;4.22;2.30;;;;;;;;;;5132669;27;20187;-81
2022/05/31 09:05:43;;;;;;;3.75;2.50;;;;;;;;;;5132916;27;20286;-81
2022/05/31 09:08:17;;;;;;;5.25;3.08;;;;;;;;;;5132896;27;20175;-81
2022/05/31 09:10:47;;;;;;;6.05;2.72;;;;;;;;;;5133071;27;20183;-81
2022/05/31 09:13:22;;;;;;;5.60;2.83;;;;;;;;;;5132810;27;20309;-81
2022/05/31 09:15:53;;;;;;;7.95;3.35;;;;;;;;;;5133214;27;20178;-81
2022/05/31 09:18:23;;;;;;;6.32;2.90;;;;;;;;;;5132807;27;20649;-81
2022/05/31 09:20:54;;;;;;;6.13;2.53;;;;;;;;;;5132877;27;20187;-81
2022/05/31 09:23:23;;;;;;;6.10;3.08;;;;;;;;;;5133012;27;20262;-81
2022/05/31 09:25:56;;;;;;;6.85;3.58;;;;;;;;;;5133087;27;20671;-81
2022/05/31 09:28:33;;;;;;;3.63;3.10;;;;;;;;;;5132666;27;20222;-81
2022/05/31 09:31:04;;;;;;;5.60;3.28;;;;;;;;;;5132611;27;20186;-81
2022/05/31 09:33:35;;;;;;;4.07;2.72;;;;;;;;;;5132873;27;20232;-81
2022/05/31 09:36:14;;;;;;;2.75;2.55;;;;;;;;;;5133282;27;20654;-81
2022/05/31 09:39:10;;;;;;;6.38;3.00;;;;;;;;;;5132867;27;20187;-81
2022/05/31 09:41:41;;;;;;;6.78;2.70;;;;;;;;;;5132947;27;20240;-81
2022/05/31 09:44:14;;;;;;;4.47;2.75;;;;;;;;;;5132481;27;20183;-81
2022/05/31 09:46:44;;;;;;;4.88;2.63;;;;;;;;;;5132672;27;20186;-81
2022/05/31 09:49:24;;;;;;;3.40;3.10;;;;;;;;;;5132744;27;20195;-81
2022/05/31 09:51:53;;;;;;;5.30;2.75;;;;;;;;;;5132619;27;20179;-81
2022/05/31 09:57:13;;;;;;;3.72;2.67;;;;;;;;;;5132642;28;20185;-81
2022/05/31 09:59:46;;;;;;;3.20;2.30;;;;;;;;;;5132408;27;20273;-82
2022/05/31 10:02:26;;;;;;;3.47;3.08;;;;;;;;;;5132416;27;20183;-81
2022/05/31 10:05:15;;;;;;;6.18;2.38;;;;;;;;;;5132048;27;20275;-81
2022/05/31 10:07:44;;;;;;;5.53;2.70;;;;;;;;;;5132604;27;20182;-81
2022/05/31 10:10:15;;;;;;;4.38;3.47;;;;;;;;;;5135457;27;20671;-81
2022/05/31 10:12:51;;;;;;;9.57;3.35;;;;;;;;;;5136356;27;20203;-81
2022/05/31 10:15:40;;;;;;;5.43;4.95;;;;;;;;;;5136263;27;20182;-81
2022/05/31 10:18:09;;;;;;;5.57;4.15;;;;;;;;;;5136222;27;20201;-81
2022/05/31 10:20:37;;;;;;;8.07;4.32;;;;;;;;;;5136067;27;20195;-81
2022/05/31 10:23:10;;;;;;;5.05;4.05;;;;;;;;;;5136014;27;20754;-81
2022/05/31 10:25:42;;;;;;;5.53;3.97;;;;;;;;;;5136015;27;20179;-81
2022/05/31 10:28:15;;;;;;;6.82;3.85;;;;;;;;;;5135694;27;20186;-81
2022/05/31 10:30:42;;;;;;;5.82;3.70;;;;;;;;;;5135927;27;20189;-81
2022/05/31 10:33:12;;;;;;;6.55;3.38;;;;;;;;;;5135378;27;20263;-81
2022/05/31 10:35:42;;;;;;;9.05;3.83;;;;;;;;;;5136093;27;20663;-81
2022/05/31 10:38:26;;;;;;;5.18;3.65;;;;;;;;;;5135583;27;20179;-81
2022/05/31 10:40:56;;;;;;;8.20;4.03;;;;;;;;;;5135757;27;20187;-81
2022/05/31 10:43:35;;;;;;;5.70;4.07;;;;;;;;;;5135664;27;20183;-81
2022/05/31 10:46:05;;;;;;;7.68;4.25;;;;;;;;;;5135611;27;20179;-81
2022/05/31 10:48:46;;;;;;;4.20;3.58;;;;;;;;;;5135331;27;20190;-81
2022/05/31 10:51:19;;;;;;;6.68;4.35;;;;;;;;;;5135346;27;20178;-81
2022/05/31 10:53:55;;;;;;;4.03;3.72;;;;;;;;;;5135638;27;20202;-81
2022/05/31 10:56:30;;;;;;;5.63;3.30;;;;;;;;;;5135487;27;20662;-81
2022/05/31 10:59:00;;;;;;;6.70;4.10;;;;;;;;;;5135209;27;20187;-81
2022/05/31 11:01:39;;;;;;;7.53;4.68;;;;;;;;;;5135397;27;20638;-81
2022/05/31 11:04:15;;;;;;;4.97;4.30;;;;;;;;;;5135451;27;20247;-81
2022/05/31 11:06:50;;;;;;;8.18;5.20;;;;;;;;;;5135010;27;20782;-81
2022/05/31 11:12:32;;;;;;;5.97;4.70;;;;;;;;;;5135154;27;20178;-81
2022/05/31 11:15:06;;;;;;;11.10;4.88;;;;;;;;;;5135318;27;20218;-81
2022/05/31 11:17:52;;;;;;;6.88;5.22;;;;;;;;;;5134820;27;20215;-81
2022/05/31 11:20:24;;;;;;;5.57;4.95;;;;;;;;;;5134671;27;20635;-81
2022/05/31 11:23:00;;;;;;;5.10;4.57;;;;;;;;;;5135118;27;20179;-80
2022/05/31 11:25:54;;;;;;;6.90;4.70;;;;;;;;;;5135099;27;20603;-81
2022/05/31 11:28:28;;;;;;;6.20;4.90;;;;;;;;;;5127947;27;20243;-80
2022/05/31 11:31:09;;;;;;;6.97;5.40;;;;;;;;;;5135040;27;20182;-81
2022/05/31 11:33:49;;;;;;;8.68;5.35;;;;;;;;;;5134741;27;20286;-81
2022/05/31 11:36:21;;;;;;;10.70;5.10;;;;;;;;;;5134566;27;20182;-81
2022/05/31 11:38:58;;;;;;;5.85;5.13;;;;;;;;;;5134602;27;20194;-81
2022/05/31 11:41:37;;;;;;;8.57;4.85;;;;;;;;;;5134806;27;20223;-81
2022/05/31 11:45:01;;;;;;;17.77;6.25;;;;;;;;;;5134260;27;20636;-81
2022/05/31 11:47:40;;;;;;;5.30;4.17;;;;;;;;;;5050711;28;20194;-81
2022/05/31 11:50:14;;;;;;;3.93;3.10;;;;;;;;;;5121486;27;20198;-81
2022/05/31 11:53:00;;;;;;;7.53;3.40;;;;;;;;;;5133967;27;20273;-81
2022/05/31 11:55:29;;;;;;;6.83;3.50;;;;;;;;;;5134165;27;20222;-81
2022/05/31 11:58:09;;;;;;;7.47;3.40;;;;;;;;;;5134243;27;20195;-81
2022/05/31 12:00:43;;;;;;;12.97;4.17;;;;;;;;;;5134123;27;20266;-82
2022/05/31 12:03:15;;;;;;;15.07;4.87;;;;;;;;;;5133990;27;20187;-83
2022/05/31 12:05:46;;;;;;;27.87;8.27;;;;;;;;;;5133642;27;20238;-83
2022/05/31 12:08:18;;;;;;;20.13;6.40;;;;;;;;;;5133795;27;20222;-84
2022/05/31 12:10:48;;;;;;;8.67;4.53;;;;;;;;;;5133862;27;20643;-84
2022/05/31 12:13:17;;;;;;;10.73;4.93;;;;;;;;;;5133914;27;20222;-84
2022/05/31 12:15:46;;;;;;;9.67;4.83;;;;;;;;;;5133513;27;20259;-83
2022/05/31 12:18:19;;;;;;;9.07;5.13;;;;;;;;;;5133577;27;20194;-83
2022/05/31 12:20:52;;;;;;;7.60;5.47;;;;;;;;;;5133714;27;20738;-83
2022/05/31 12:23:26;;;;;;;6.90;5.20;;;;;;;;;;5133818;27;20228;-83
2022/05/31 12:25:55;;;;;;;8.07;5.80;;;;;;;;;;5133380;27;20187;-83
2022/05/31 12:28:30;;;;;;;10.10;5.43;;;;;;;;;;5133702;27;20199;-83
2022/05/31 12:51:28;;;;;;;7.57;6.20;;;;;;;;;;5065703;28;20554;-82
2022/05/31 12:53:57;;;;;;;7.80;5.63;;;;;;;;;;5065738;28;20197;-82
2022/05/31 12:56:59;;;;;;;6.37;5.67;;;;;;;;;;5065511;28;20197;-82
2022/05/31 12:59:47;;;;;;;8.17;5.83;;;;;;;;;;4984310;28;20211;-83
2022/05/31 13:02:40;;;;;;;8.57;6.07;;;;;;;;;;5060895;28;20288;-83
2022/05/31 13:05:30;;;;;;;9.83;7.20;;;;;;;;;;5055768;28;20638;-82
2022/05/31 13:08:14;;;;;;;11.40;6.40;;;;;;;;;;5065592;28;20233;-82
2022/05/31 13:19:34;;;;;;;15.20;7.63;;;;;;;;;;5065457;28;20226;-82
2022/05/31 13:21:54;;;;;;;8.83;7.73;;;;;;;;;;5065326;28;20185;-82
2022/05/31 13:24:25;;;;;;;7.90;6.80;;;;;;;;;;5065274;28;20258;-82
2022/05/31 13:26:52;;;;;;;8.67;7.77;;;;;;;;;;5065598;28;20189;-82
2022/05/31 13:29:21;;;;;;;7.70;6.90;;;;;;;;;;5065543;28;20193;-82
2022/05/31 13:31:51;;;;;;;7.80;5.83;;;;;;;;;;5064822;28;20202;-82
2022/05/31 13:34:33;;;;;;;16.10;7.03;;;;;;;;;;5065481;28;20211;-82
2022/05/31 13:37:03;;;;;;;7.60;6.63;;;;;;;;;;5065054;28;20717;-82
2022/05/31 13:39:33;;;;;;;7.37;6.53;;;;;;;;;;5065070;28;20309;-82
2022/05/31 13:42:02;;;;;;;11.93;7.50;;;;;;;;;;5064913;28;20261;-82
2022/05/31 13:44:31;;;;;;;7.00;5.63;;;;;;;;;;5064926;28;20213;-83
2022/05/31 13:46:59;;;;;;;10.00;7.07;;;;;;;;;;5064960;28;20198;-82
2022/05/31 13:49:31;;;;;;;8.63;6.87;;;;;;;;;;5064977;28;20229;-82
2022/05/31 13:52:00;;;;;;;13.73;6.77;;;;;;;;;;5054015;28;20204;-83
2022/05/31 13:54:29;;;;;;;10.90;6.97;;;;;;;;;;5051141;28;20229;-82
2022/05/31 13:57:03;;;;;;;7.03;6.33;;;;;;;;;;5051182;28;20287;-82
2022/05/31 13:59:32;;;;;;;8.17;7.30;;;;;;;;;;5051150;28;20745;-82
2022/05/31 14:01:59;;;;;;;12.93;7.00;;;;;;;;;;5051395;28;20194;-82
2022/05/31 14:04:32;;;;;;;9.93;7.50;;;;;;;;;;5051143;28;20198;-82
2022/05/31 14:06:59;;;;;;;8.00;6.40;;;;;;;;;;5051212;28;20182;-82
2022/05/31 14:09:28;;;;;;;10.40;6.77;;;;;;;;;;5051523;28;20200;-82
2022/05/31 14:11:58;;;;;;;9.83;6.60;;;;;;;;;;5050295;28;20209;-82
2022/05/31 14:14:30;;;;;;;8.07;7.33;;;;;;;;;;5051273;28;20280;-82
2022/05/31 14:16:58;;;;;;;8.93;7.53;;;;;;;;;;5050927;28;20666;-82
2022/05/31 14:19:28;;;;;;;7.70;7.10;;;;;;;;;;5051123;28;20232;-82
2022/05/31 14:22:05;;;;;;;8.17;7.43;;;;;;;;;;5050915;28;20202;-83
2022/05/31 14:24:33;;;;;;;11.40;6.37;;;;;;;;;;5030579;28;20216;-82
2022/05/31 14:27:05;;;;;;;8.40;7.37;;;;;;;;;;5031179;28;20207;-82
2022/05/31 14:29:33;;;;;;;7.93;6.87;;;;;;;;;;5030897;28;20240;-81
2022/05/31 14:32:22;;;;;;;8.60;7.33;;;;;;;;;;5030768;28;20225;-82
2022/05/31 14:34:51;;;;;;;7.57;6.20;;;;;;;;;;5030769;28;20646;-82
2022/05/31 14:37:28;;;;;;;6.17;5.10;;;;;;;;;;5031178;28;20260;-81
2022/05/31 14:40:03;;;;;;;4.87;4.20;;;;;;;;;;5030994;28;20214;-83
2022/05/31 14:42:35;;;;;;;4.20;3.90;;;;;;;;;;5030381;28;20198;-82
2022/05/31 14:45:04;;;;;;;4.20;3.80;;;;;;;;;;5030910;28;20187;-81
2022/05/31 14:47:36;;;;;;;5.40;4.17;;;;;;;;;;5030821;28;20252;-82
2022/05/31 14:50:10;;;;;;;4.80;3.77;;;;;;;;;;5029116;28;20227;-81
2022/05/31 14:52:45;;;;;;;8.53;4.50;;;;;;;;;;5029583;28;20182;-81
2022/05/31 14:55:15;;;;;;;4.50;4.03;;;;;;;;;;5029331;28;20225;-81
2022/05/31 15:00:36;;;;;;;8.40;4.27;;;;;;;;;;5029405;28;20217;-82
2022/05/31 15:03:04;;;;;;;7.37;4.10;;;;;;;;;;5028098;28;20250;-82
2022/05/31 15:05:31;;;;;;;9.13;3.60;;;;;;;;;;5029253;28;20199;-81
2022/05/31 15:08:01;;;;;;;4.10;3.70;;;;;;;;;;5029554;28;20206;-81
2022/05/31 15:10:31;;;;;;;7.67;4.40;;;;;;;;;;5029520;28;20230;-81
2022/05/31 15:21:16;;;;;;;6.63;5.80;;;;;;;;;;5028822;28;20213;-75
2022/05/31 15:23:43;;;;;;;6.60;5.90;;;;;;;;;;5029365;28;20194;-76
2022/05/31 15:26:12;;;;;;;7.73;5.23;;;;;;;;;;5028974;28;20224;-75
2022/05/31 15:28:40;;;;;;;6.93;6.20;;;;;;;;;;5028781;28;20195;-76
2022/05/31 15:31:09;;;;;;;7.57;6.10;;;;;;;;;;5028791;28;20626;-75
2022/05/31 15:33:36;;;;;;;7.67;6.97;;;;;;;;;;5028743;28;20199;-75
2022/05/31 15:36:04;;;;;;;6.97;6.00;;;;;;;;;;5028835;28;20256;-75
2022/05/31 15:38:34;;;;;;;7.33;6.37;;;;;;;;;;5028921;28;20678;-75
2022/05/31 15:41:03;;;;;;;6.43;5.80;;;;;;;;;;5028630;28;20309;-76
2022/05/31 15:46:16;;;;;;;7.83;6.40;;;;;;;;;;5028627;28;20189;-75
2022/05/31 15:48:43;;;;;;;6.70;6.10;;;;;;;;;;5028718;28;20558;-75
2022/05/31 15:51:10;;;;;;;5.83;5.33;;;;;;;;;;5028184;28;20287;-76
2022/05/31 15:53:37;;;;;;;6.33;5.67;;;;;;;;;;5028202;28;20234;-75
2022/05/31 15:56:05;;;;;;;5.90;5.13;;;;;;;;;;5027985;28;20289;-75
2022/05/31 15:58:33;;;;;;;6.77;5.17;;;;;;;;;;5028736;28;20283;-76
2022/05/31 16:01:00;;;;;;;13.20;8.27;;;;;;;;;;5027973;28;20218;-75
2022/05/31 16:03:28;;;;;;;14.67;6.20;;;;;;;;;;5028603;28;20260;-75
2022/05/31 16:05:56;;;;;;;8.00;5.43;;;;;;;;;;5028167;28;20252;-75